createdAt,value
2018-01-12T00:00:51.995Z,15.20
2018-01-12T00:03:19.163Z,15.20
2018-01-12T00:05:46.333Z,15.20
2018-01-12T00:08:13.501Z,15.20
2018-01-12T00:10:40.665Z,15.20
2018-01-12T00:13:07.876Z,15.20
2018-01-12T00:15:35.043Z,15.20
2018-01-12T00:18:02.214Z,15.20
2018-01-12T00:20:29.386Z,15.20
2018-01-12T00:22:57.325Z,15.20
2018-01-12T00:25:24.495Z,15.20
2018-01-12T00:27:52.433Z,15.20
2018-01-12T00:30:20.627Z,15.20
2018-01-12T00:32:47.794Z,15.10
2018-01-12T00:35:15.730Z,15.10
2018-01-12T00:37:42.962Z,15.10
2018-01-12T00:40:10.142Z,15.10
2018-01-12T00:42:37.348Z,15.10
2018-01-12T00:45:04.523Z,15.10
2018-01-12T00:47:32.462Z,15.10
2018-01-12T00:49:59.635Z,15.00
2018-01-12T00:52:26.806Z,15.10
2018-01-12T00:54:53.982Z,15.10
2018-01-12T00:57:21.151Z,15.10
2018-01-12T00:59:49.085Z,15.10
2018-01-12T01:02:16.290Z,15.10
2018-01-12T01:04:43.494Z,15.00
2018-01-12T01:07:10.662Z,15.00
2018-01-12T01:09:38.670Z,15.00
2018-01-12T01:12:05.837Z,15.00
2018-01-12T01:14:33.006Z,15.00
2018-01-12T01:17:00.174Z,15.00
2018-01-12T01:19:27.342Z,15.10
2018-01-12T01:21:54.503Z,15.20
2018-01-12T01:24:22.447Z,15.30
2018-01-12T01:26:49.614Z,15.30
2018-01-12T01:29:16.777Z,15.30
2018-01-12T01:31:44.705Z,15.20
2018-01-12T01:34:11.874Z,15.20
2018-01-12T01:36:39.077Z,15.20
2018-01-12T01:39:06.318Z,15.20
2018-01-12T01:41:33.525Z,15.20
2018-01-12T01:44:00.693Z,15.20
2018-01-12T01:46:28.670Z,15.10
2018-01-12T01:48:56.600Z,15.10
2018-01-12T01:51:23.769Z,15.10
2018-01-12T01:53:50.933Z,15.00
2018-01-12T01:56:18.105Z,15.10
2018-01-12T01:58:46.041Z,15.10
2018-01-12T02:01:13.226Z,15.10
2018-01-12T02:03:41.162Z,15.00
2018-01-12T02:06:08.338Z,15.00
2018-01-12T02:08:36.269Z,15.10
2018-01-12T02:11:03.439Z,15.10
2018-01-12T02:13:30.760Z,15.10
2018-01-12T02:15:57.926Z,15.10
2018-01-12T02:18:25.858Z,15.00
2018-01-12T02:20:53.028Z,15.00
2018-01-12T02:23:20.189Z,15.00
2018-01-12T02:25:47.354Z,15.10
2018-01-12T02:28:15.456Z,15.10
2018-01-12T02:30:44.207Z,15.10
2018-01-12T02:33:11.394Z,15.10
2018-01-12T02:35:39.337Z,15.00
2018-01-12T02:38:07.272Z,15.00
2018-01-12T02:40:34.525Z,15.00
2018-01-12T02:43:02.470Z,15.00
2018-01-12T02:45:31.350Z,15.00
2018-01-12T02:47:59.285Z,15.00
2018-01-12T02:50:26.489Z,15.00
2018-01-12T02:52:55.333Z,15.00
2018-01-12T02:55:22.501Z,15.00
2018-01-12T02:57:50.475Z,15.00
2018-01-12T03:00:17.642Z,15.00
2018-01-12T03:02:45.589Z,15.00
2018-01-12T03:05:12.765Z,15.00
2018-01-12T03:07:40.758Z,15.00
2018-01-12T03:10:07.917Z,15.00
2018-01-12T03:12:35.079Z,15.00
2018-01-12T03:15:02.254Z,15.00
2018-01-12T03:17:29.451Z,15.00
2018-01-12T03:19:57.374Z,15.20
2018-01-12T03:22:25.354Z,15.20
2018-01-12T03:24:52.521Z,15.20
2018-01-12T03:27:20.461Z,15.30
2018-01-12T03:29:47.630Z,15.30
2018-01-12T03:32:15.767Z,15.40
2018-01-12T03:34:42.955Z,15.30
2018-01-12T03:37:10.118Z,15.30
2018-01-12T03:39:37.285Z,15.30
2018-01-12T03:42:05.258Z,15.20
2018-01-12T03:44:33.996Z,15.20
2018-01-12T03:47:02.068Z,15.20
2018-01-12T03:49:30.805Z,15.10
2018-01-12T03:51:59.548Z,15.10
2018-01-12T03:54:27.514Z,15.20
2018-01-12T03:56:54.690Z,15.10
2018-01-12T03:59:21.857Z,15.10
2018-01-12T04:01:50.572Z,15.10
2018-01-12T04:04:18.597Z,15.00
2018-01-12T04:06:45.765Z,15.10
2018-01-12T04:09:13.697Z,15.10
2018-01-12T04:11:41.756Z,15.10
2018-01-12T04:14:08.925Z,15.10
2018-01-12T04:16:37.016Z,15.10
2018-01-12T04:19:04.191Z,15.10
2018-01-12T04:21:33.008Z,15.00
2018-01-12T04:24:00.960Z,15.00
2018-01-12T04:26:29.830Z,15.00
2018-01-12T04:28:57.002Z,15.00
2018-01-12T04:31:24.164Z,15.10
2018-01-12T04:33:52.125Z,15.10
2018-01-12T04:36:20.993Z,14.90
2018-01-12T04:38:49.878Z,15.00
2018-01-12T04:41:17.969Z,15.00
2018-01-12T04:43:45.938Z,15.00
2018-01-12T04:46:13.869Z,15.00
2018-01-12T04:48:41.876Z,15.00
2018-01-12T04:51:10.584Z,15.00
2018-01-12T04:53:38.813Z,15.00
2018-01-12T04:56:06.923Z,15.00
2018-01-12T04:58:35.784Z,15.00
2018-01-12T05:01:02.982Z,15.00
2018-01-12T05:03:30.154Z,15.10
2018-01-12T05:05:58.169Z,15.00
2018-01-12T05:08:26.254Z,15.00
2018-01-12T05:10:54.220Z,15.00
2018-01-12T05:13:22.957Z,15.00
2018-01-12T05:15:50.158Z,15.00
2018-01-12T05:18:18.129Z,15.10
2018-01-12T05:20:46.860Z,15.20
2018-01-12T05:23:14.141Z,15.20
2018-01-12T05:25:41.346Z,15.20
2018-01-12T05:28:09.463Z,15.30
2018-01-12T05:30:36.630Z,15.30
2018-01-12T05:33:03.834Z,15.30
2018-01-12T05:35:31.000Z,15.20
2018-01-12T05:37:59.106Z,15.20
2018-01-12T05:40:26.329Z,15.20
2018-01-12T05:42:54.405Z,15.20
2018-01-12T05:45:21.565Z,15.20
2018-01-12T05:47:48.763Z,15.10
2018-01-12T05:50:17.646Z,15.10
2018-01-12T05:52:46.574Z,15.10
2018-01-12T05:55:13.741Z,15.10
2018-01-12T05:57:40.911Z,15.00
2018-01-12T06:00:08.078Z,15.00
2018-01-12T06:02:56.098Z,15.00
2018-01-12T06:05:29.235Z,15.00
2018-01-12T06:07:57.273Z,15.00
2018-01-12T06:10:25.211Z,15.00
2018-01-12T06:12:52.403Z,15.00
2018-01-12T06:15:19.573Z,15.10
2018-01-12T06:17:47.502Z,15.00
2018-01-12T06:20:15.434Z,15.00
2018-01-12T06:22:42.634Z,15.00
2018-01-12T06:25:09.794Z,15.00
2018-01-12T06:27:36.993Z,15.00
2018-01-12T06:30:04.160Z,15.10
2018-01-12T06:32:31.329Z,15.00
2018-01-12T06:34:59.313Z,15.10
2018-01-12T06:37:27.393Z,15.10
2018-01-12T06:39:54.561Z,15.10
2018-01-12T06:42:23.262Z,15.10
2018-01-12T06:44:52.002Z,15.00
2018-01-12T06:47:19.170Z,15.00
2018-01-12T06:49:47.228Z,15.00
2018-01-12T06:52:15.324Z,15.10
2018-01-12T06:54:43.390Z,15.20
2018-01-12T06:57:11.458Z,15.30
2018-01-12T06:59:39.550Z,15.40
2018-01-12T07:02:07.481Z,15.30
2018-01-12T07:04:34.656Z,15.30
2018-01-12T07:07:02.590Z,15.30
2018-01-12T07:09:30.727Z,15.30
2018-01-12T07:11:59.429Z,15.30
2018-01-12T07:14:27.533Z,15.20
2018-01-12T07:16:54.697Z,15.20
2018-01-12T07:19:21.858Z,15.20
2018-01-12T07:21:55.033Z,15.10
2018-01-12T07:24:22.199Z,15.10
2018-01-12T07:26:49.366Z,15.10
2018-01-12T07:29:16.524Z,15.00
2018-01-12T07:31:45.409Z,15.00
2018-01-12T07:34:13.372Z,15.00
2018-01-12T07:36:40.574Z,15.00
2018-01-12T07:39:07.737Z,15.00
2018-01-12T07:41:34.938Z,15.10
2018-01-12T07:44:02.874Z,15.00
2018-01-12T07:46:31.750Z,15.00
2018-01-12T07:48:58.918Z,15.00
2018-01-12T07:51:26.090Z,15.00
2018-01-12T07:53:53.249Z,15.00
2018-01-12T07:56:20.470Z,15.10
2018-01-12T07:58:47.640Z,15.20
2018-01-12T08:01:20.709Z,15.30
2018-01-12T08:03:48.896Z,15.30
2018-01-12T08:06:16.065Z,15.40
2018-01-12T08:08:43.265Z,15.30
2018-01-12T08:11:10.436Z,15.10
2018-01-12T08:13:37.602Z,14.60
2018-01-12T08:16:05.389Z,14.10
2018-01-12T08:18:32.535Z,13.80
2018-01-12T08:20:59.702Z,13.70
2018-01-12T08:23:27.641Z,14.40
2018-01-12T08:25:54.805Z,14.40
2018-01-12T08:28:22.153Z,14.70
2018-01-12T08:30:49.317Z,14.90
2018-01-12T08:33:16.485Z,14.90
2018-01-12T08:35:44.414Z,15.00
2018-01-12T08:38:11.800Z,15.00
2018-01-12T08:40:39.006Z,14.90
2018-01-12T08:43:06.982Z,15.20
2018-01-12T08:45:34.162Z,15.20
2018-01-12T08:48:01.334Z,15.50
2018-01-12T08:50:28.593Z,15.20
2018-01-12T08:52:55.764Z,15.00
2018-01-12T08:55:22.969Z,15.00
2018-01-12T08:57:51.185Z,15.00
2018-01-12T09:00:18.437Z,15.00
2018-01-12T09:02:45.636Z,14.90
2018-01-12T09:05:12.847Z,15.00
2018-01-12T09:07:40.733Z,14.90
2018-01-12T09:10:09.192Z,14.90
2018-01-12T09:12:37.537Z,15.00
2018-01-12T09:15:06.470Z,14.90
2018-01-12T09:17:49.062Z,15.00
2018-01-12T09:20:17.156Z,14.90
2018-01-12T09:22:46.900Z,14.90
2018-01-12T09:25:20.544Z,14.90
2018-01-12T09:27:48.509Z,14.90
2018-01-12T09:30:22.525Z,14.90
2018-01-12T09:32:49.688Z,14.90
2018-01-12T09:35:16.860Z,14.90
2018-01-12T09:37:44.547Z,14.90
2018-01-12T09:40:21.718Z,15.00
2018-01-12T09:42:49.657Z,15.20
2018-01-12T09:45:16.826Z,15.20
2018-01-12T09:47:51.049Z,15.20
2018-01-12T09:50:18.258Z,15.20
2018-01-12T09:52:45.430Z,15.20
2018-01-12T09:55:13.469Z,15.10
2018-01-12T09:57:40.637Z,15.10
2018-01-12T10:00:17.489Z,15.10
2018-01-12T10:02:44.661Z,15.10
2018-01-12T10:05:11.825Z,15.10
2018-01-12T10:07:45.073Z,15.10
2018-01-12T10:10:13.126Z,15.10
2018-01-12T10:12:40.382Z,15.10
2018-01-12T10:15:07.556Z,15.10
2018-01-12T10:17:37.080Z,15.00
2018-01-12T10:20:19.490Z,15.00
2018-01-12T10:22:46.694Z,15.00
2018-01-12T10:25:13.865Z,15.00
2018-01-12T10:27:41.841Z,15.10
2018-01-12T10:30:15.594Z,15.10
2018-01-12T10:32:44.705Z,15.10
2018-01-12T10:35:21.864Z,15.10
2018-01-12T10:37:49.079Z,15.10
2018-01-12T10:40:23.059Z,15.00
2018-01-12T10:42:50.339Z,15.00
2018-01-12T10:45:17.509Z,15.10
2018-01-12T10:47:47.404Z,15.10
2018-01-12T10:50:18.344Z,15.10
2018-01-12T10:52:47.315Z,15.00
2018-01-12T10:55:14.594Z,15.00
2018-01-12T10:57:41.836Z,15.00
2018-01-12T11:00:15.006Z,15.00
2018-01-12T11:02:42.186Z,15.00
2018-01-12T11:05:09.395Z,15.00
2018-01-12T11:07:36.597Z,15.00
2018-01-12T11:10:04.594Z,15.00
2018-01-12T11:12:31.758Z,15.00
2018-01-12T11:14:59.718Z,15.10
2018-01-12T11:17:28.077Z,15.20
2018-01-12T11:19:56.032Z,15.40
2018-01-12T11:22:24.078Z,15.40
2018-01-12T11:24:52.049Z,15.40
2018-01-12T11:27:20.861Z,15.30
2018-01-12T11:29:48.042Z,15.30
2018-01-12T11:32:15.981Z,15.20
2018-01-12T11:34:43.149Z,15.20
2018-01-12T11:37:11.085Z,15.20
2018-01-12T11:39:39.285Z,15.20
2018-01-12T11:42:06.452Z,15.20
2018-01-12T11:44:34.383Z,15.20
2018-01-12T11:47:01.544Z,15.10
2018-01-12T11:49:28.722Z,15.10
2018-01-12T11:51:56.701Z,15.10
2018-01-12T11:54:24.633Z,15.10
2018-01-12T11:56:51.851Z,15.10
2018-01-12T11:59:19.027Z,15.10
2018-01-12T12:01:46.232Z,15.20
2018-01-12T12:04:13.409Z,15.10
2018-01-12T12:06:40.574Z,15.00
2018-01-12T12:09:07.768Z,15.00
2018-01-12T12:11:35.729Z,15.10
2018-01-12T12:14:02.895Z,15.10
2018-01-12T12:16:30.868Z,15.10
2018-01-12T12:18:58.806Z,15.00
2018-01-12T12:21:25.980Z,15.00
2018-01-12T12:23:53.934Z,15.00
2018-01-12T12:26:21.126Z,15.00
2018-01-12T12:28:48.333Z,15.00
2018-01-12T12:31:15.562Z,15.10
2018-01-12T12:33:42.728Z,15.10
2018-01-12T12:36:09.894Z,15.10
2018-01-12T12:38:37.066Z,15.20
2018-01-12T12:41:04.998Z,15.30
2018-01-12T12:43:32.164Z,15.30
2018-01-12T12:45:59.329Z,15.30
2018-01-12T12:48:27.264Z,15.40
2018-01-12T12:50:54.435Z,15.40
2018-01-12T12:53:21.632Z,15.50
2018-01-12T12:55:48.838Z,15.50
2018-01-12T12:58:16.011Z,15.40
2018-01-12T13:00:43.941Z,15.40
2018-01-12T13:03:11.227Z,15.30
2018-01-12T13:05:38.401Z,15.40
2018-01-12T13:08:05.568Z,15.30
2018-01-12T13:10:32.768Z,15.30
2018-01-12T13:12:59.937Z,15.30
2018-01-12T13:15:27.868Z,15.20
2018-01-12T13:17:55.075Z,15.20
2018-01-12T13:20:24.026Z,15.20
2018-01-12T13:22:51.297Z,15.20
2018-01-12T13:25:18.465Z,15.20
2018-01-12T13:27:46.398Z,15.20
2018-01-12T13:30:13.569Z,15.20
2018-01-12T13:32:40.746Z,15.10
2018-01-12T13:35:07.968Z,15.20
2018-01-12T13:37:35.140Z,15.20
2018-01-12T13:40:03.077Z,15.10
2018-01-12T13:42:30.420Z,15.10
2018-01-12T13:44:57.578Z,15.10
2018-01-12T13:47:24.777Z,15.20
2018-01-12T13:49:52.713Z,15.20
2018-01-12T13:52:20.886Z,15.20
2018-01-12T13:54:48.963Z,15.20
2018-01-12T13:57:16.175Z,15.30
2018-01-12T13:59:43.352Z,15.40
2018-01-12T14:02:10.558Z,15.50
2018-01-12T14:04:37.729Z,15.50
2018-01-12T14:07:04.902Z,15.50
2018-01-12T14:09:32.069Z,15.50
2018-01-12T14:11:59.238Z,15.50
2018-01-12T14:14:27.204Z,15.40
2018-01-12T14:16:54.378Z,15.30
2018-01-12T14:19:22.348Z,15.30
2018-01-12T14:21:50.277Z,15.30
2018-01-12T14:24:17.478Z,15.30
2018-01-12T14:26:44.743Z,15.20
2018-01-12T14:29:11.941Z,15.20
2018-01-12T14:31:39.105Z,15.30
2018-01-12T14:34:07.073Z,15.30
2018-01-12T14:36:35.012Z,15.30
2018-01-12T14:39:02.215Z,15.30
2018-01-12T14:41:30.148Z,15.20
2018-01-12T14:43:57.348Z,15.20
2018-01-12T14:46:24.514Z,15.20
2018-01-12T14:48:51.725Z,15.20
2018-01-12T14:51:18.963Z,15.20
2018-01-12T14:53:46.249Z,15.20
2018-01-12T14:56:14.183Z,15.10
2018-01-12T14:58:42.180Z,15.10
2018-01-12T15:01:11.078Z,15.20
2018-01-12T15:03:39.046Z,15.20
2018-01-12T15:06:06.990Z,15.20
2018-01-12T15:08:34.188Z,15.20
2018-01-12T15:11:01.355Z,15.20
2018-01-12T15:13:28.588Z,15.10
2018-01-12T15:15:55.769Z,15.00
2018-01-12T15:18:22.973Z,15.00
2018-01-12T15:20:50.906Z,15.00
2018-01-12T15:23:18.200Z,15.00
2018-01-12T15:25:46.141Z,14.90
2018-01-12T15:28:13.309Z,14.90
2018-01-12T15:30:41.242Z,14.90
2018-01-12T15:33:08.413Z,14.90
2018-01-12T15:35:35.573Z,14.90
2018-01-12T15:38:02.734Z,14.90
2018-01-12T15:40:30.669Z,14.80
2018-01-12T15:42:57.830Z,14.80
2018-01-12T15:45:25.001Z,14.80
2018-01-12T15:47:52.989Z,14.80
2018-01-12T15:50:21.112Z,14.80
2018-01-12T15:52:48.282Z,14.80
2018-01-12T15:55:15.521Z,14.90
2018-01-12T15:57:43.493Z,14.90
2018-01-12T16:00:11.420Z,15.10
2018-01-12T16:02:38.601Z,15.10
2018-01-12T16:05:06.662Z,15.20
2018-01-12T16:07:33.828Z,15.20
2018-01-12T16:10:00.984Z,15.20
2018-01-12T16:12:29.076Z,15.20
2018-01-12T16:14:56.333Z,15.20
2018-01-12T16:17:23.497Z,15.20
2018-01-12T16:19:52.313Z,15.10
2018-01-12T16:22:19.475Z,15.10
2018-01-12T16:24:46.652Z,15.10
2018-01-12T16:27:13.817Z,15.00
2018-01-12T16:29:40.981Z,15.00
2018-01-12T16:32:08.148Z,15.00
2018-01-12T16:34:36.089Z,15.00
2018-01-12T16:37:03.437Z,15.00
2018-01-12T16:39:30.630Z,15.00
2018-01-12T16:41:58.580Z,14.90
2018-01-12T16:44:25.752Z,14.90
2018-01-12T16:46:53.711Z,15.00
2018-01-12T16:49:22.406Z,15.00
2018-01-12T16:51:49.681Z,15.00
2018-01-12T16:54:16.856Z,15.00
2018-01-12T16:56:44.017Z,15.00
2018-01-12T16:59:11.424Z,14.90
2018-01-12T17:01:39.417Z,14.90
2018-01-12T17:04:06.625Z,14.90
2018-01-12T17:06:34.572Z,15.00
2018-01-12T17:09:02.712Z,15.00
2018-01-12T17:11:30.764Z,14.90
2018-01-12T17:13:58.689Z,15.00
2018-01-12T17:16:25.856Z,15.00
2018-01-12T17:18:53.071Z,15.00
2018-01-12T17:21:20.275Z,15.00
2018-01-12T17:23:48.344Z,15.00
2018-01-12T17:26:16.461Z,15.00
2018-01-12T17:28:43.626Z,14.90
2018-01-12T17:31:10.793Z,14.90
2018-01-12T17:33:38.737Z,15.00
2018-01-12T17:36:06.685Z,15.00
2018-01-12T17:38:35.556Z,14.80
2018-01-12T17:41:04.268Z,14.80
2018-01-12T17:43:31.521Z,14.80
2018-01-12T17:45:58.804Z,14.80
2018-01-12T17:48:26.055Z,14.80
2018-01-12T17:50:53.256Z,14.80
2018-01-12T17:53:20.421Z,14.90
2018-01-12T17:55:48.707Z,15.10
2018-01-12T17:58:16.794Z,15.20
2018-01-12T18:00:43.993Z,15.20
2018-01-12T18:03:11.153Z,15.20
2018-01-12T18:05:38.309Z,15.20
2018-01-12T18:08:05.515Z,15.20
2018-01-12T18:10:32.701Z,15.10
2018-01-12T18:12:59.868Z,15.10
2018-01-12T18:15:27.800Z,15.20
2018-01-12T18:17:55.145Z,15.20
2018-01-12T18:20:22.313Z,15.10
2018-01-12T18:22:50.285Z,15.10
2018-01-12T18:25:17.448Z,15.10
2018-01-12T18:27:44.654Z,15.10
2018-01-12T18:30:11.893Z,15.10
2018-01-12T18:32:40.664Z,15.00
2018-01-12T18:35:08.618Z,15.00
2018-01-12T18:37:35.868Z,15.00
2018-01-12T18:40:03.032Z,15.00
2018-01-12T18:42:30.974Z,15.00
2018-01-12T18:44:58.141Z,15.00
2018-01-12T18:47:25.345Z,15.00
2018-01-12T18:49:53.573Z,15.00
2018-01-12T18:52:20.783Z,15.00
2018-01-12T18:54:47.974Z,15.00
2018-01-12T18:57:15.145Z,15.00
2018-01-12T18:59:43.197Z,15.00
2018-01-12T19:02:10.397Z,15.00
2018-01-12T19:04:37.601Z,15.00
2018-01-12T19:07:04.781Z,15.00
2018-01-12T19:09:32.745Z,15.00
2018-01-12T19:12:00.694Z,15.00
2018-01-12T19:14:27.857Z,14.90
2018-01-12T19:16:55.043Z,15.00
2018-01-12T19:19:22.237Z,14.90
2018-01-12T19:21:49.412Z,14.90
2018-01-12T19:24:17.375Z,15.10
2018-01-12T19:26:44.550Z,15.10
2018-01-12T19:29:12.503Z,15.20
2018-01-12T19:31:39.669Z,15.30
2018-01-12T19:34:07.653Z,15.30
2018-01-12T19:36:34.818Z,15.30
2018-01-12T19:39:02.203Z,15.20
2018-01-12T19:41:30.158Z,15.20
2018-01-12T19:43:58.125Z,15.20
2018-01-12T19:46:25.354Z,15.20
2018-01-12T19:48:53.329Z,15.20
2018-01-12T19:51:20.494Z,15.20
2018-01-12T19:53:47.651Z,15.10
2018-01-12T19:56:15.601Z,15.10
2018-01-12T19:58:42.766Z,15.10
2018-01-12T20:01:09.957Z,15.10
2018-01-12T20:03:37.125Z,15.10
2018-01-12T20:06:05.093Z,15.00
2018-01-12T20:08:32.257Z,15.10
2018-01-12T20:11:00.229Z,15.00
2018-01-12T20:13:28.169Z,15.00
2018-01-12T20:15:55.333Z,15.10
2018-01-12T20:18:22.504Z,15.00
2018-01-12T20:20:50.429Z,15.00
2018-01-12T20:23:17.640Z,15.00
2018-01-12T20:25:44.844Z,14.90
2018-01-12T20:28:12.013Z,14.90
2018-01-12T20:30:39.950Z,14.90
2018-01-12T20:33:07.152Z,14.90
2018-01-12T20:35:35.093Z,14.90
2018-01-12T20:38:02.298Z,14.90
2018-01-12T20:40:29.454Z,14.80
2018-01-12T20:42:56.660Z,14.80
2018-01-12T20:45:24.721Z,14.80
2018-01-12T20:47:51.922Z,14.80
2018-01-12T20:50:19.091Z,14.90
2018-01-12T20:52:47.216Z,14.90
2018-01-12T20:55:15.152Z,14.80
2018-01-12T20:57:43.261Z,14.80
2018-01-12T21:00:12.233Z,14.80
2018-01-12T21:02:39.432Z,14.80
2018-01-12T21:05:06.595Z,14.80
2018-01-12T21:07:33.809Z,14.80
2018-01-12T21:10:02.781Z,14.70
2018-01-12T21:12:29.940Z,14.70
2018-01-12T21:14:57.217Z,14.70
2018-01-12T21:17:25.149Z,14.80
2018-01-12T21:19:52.349Z,14.80
2018-01-12T21:22:19.513Z,14.80
2018-01-12T21:24:46.681Z,14.80
2018-01-12T21:27:13.858Z,14.90
2018-01-12T21:29:41.059Z,15.00
2018-01-12T21:32:08.217Z,15.00
2018-01-12T21:34:35.412Z,14.90
2018-01-12T21:37:02.620Z,14.90
2018-01-12T21:39:29.956Z,14.90
2018-01-12T21:41:58.021Z,14.80
2018-01-12T21:44:25.968Z,14.80
2018-01-12T21:46:53.133Z,14.80
2018-01-12T21:49:21.242Z,14.90
2018-01-12T21:51:48.450Z,14.90
2018-01-12T21:54:16.625Z,14.90
2018-01-12T21:56:43.789Z,14.80
2018-01-12T21:59:11.753Z,14.80
2018-01-12T22:01:38.916Z,14.80
2018-01-12T22:04:06.886Z,14.80
2018-01-12T22:06:34.825Z,14.70
2018-01-12T22:09:02.025Z,14.70
2018-01-12T22:11:29.189Z,14.80
2018-01-12T22:13:56.357Z,14.80
2018-01-12T22:16:24.249Z,14.80
2018-01-12T22:18:51.413Z,14.80
2018-01-12T22:21:18.584Z,14.80
2018-01-12T22:23:46.517Z,14.90
2018-01-12T22:26:13.711Z,14.80
